Terminal Aerodrome Forecast
Issued by NWS

Home | Current Version | Previous Version | Text Only | Print | Product List | Glossary On
Versions: 1 2 3 4 5 6 7 8 9 10 11 12 13 14 15 16 17 18 19 20
000
FTUS43 KIND 232325
TAFBMG
TAF
KBMG 232325Z 2400/2424 25003KT P6SM OVC012
     FM240200 32004KT P6SM VCSH OVC015
     FM240700 02004KT 5SM SHRA OVC008
     FM241500 07008KT 1SM SHRA OVC008
     FM241900 10008KT 1 1/2SM SHRA OVC003
     FM242300 13007KT 1SM SHRA OVC003
      AMD LTD TO CLD VIS AND WIND 2402/2414=

USA.gov is the U.S. government's official web portal to all federal, state and local government web resources and services.